sensor_id;sensor_type;location;lat;lon;timestamp;P1;P2;P0
74426;PMS7003;62859;53.906;27.430;2023-08-21T00:00:50;18.8;16.5;11.8
74426;PMS7003;62859;53.906;27.430;2023-08-21T00:05:50;20;18;13.7
74426;PMS7003;62859;53.906;27.430;2023-08-21T00:10:38;19;17.7;12
74426;PMS7003;62859;53.906;27.430;2023-08-21T00:15:38;16.7;15.3;11
74426;PMS7003;62859;53.906;27.430;2023-08-21T00:20:34;16;15;10.5
74426;PMS7003;62859;53.906;27.430;2023-08-21T00:25:32;19;15.3;11.7
74426;PMS7003;62859;53.906;27.430;2023-08-21T00:30:40;18;14.7;11.3
74426;PMS7003;62859;53.906;27.430;2023-08-21T00:35:52;16.3;16.3;11.3
74426;PMS7003;62859;53.906;27.430;2023-08-21T00:40:50;19.8;16.5;12
74426;PMS7003;62859;53.906;27.430;2023-08-21T00:45:50;16.3;16;11
74426;PMS7003;62859;53.906;27.430;2023-08-21T00:50:32;18.7;16;11.7
74426;PMS7003;62859;53.906;27.430;2023-08-21T00:55:32;18.3;17;12
74426;PMS7003;62859;53.906;27.430;2023-08-21T01:00:32;16.5;15.3;12
74426;PMS7003;62859;53.906;27.430;2023-08-21T01:06:04;15;14.7;11.3
74426;PMS7003;62859;53.906;27.430;2023-08-21T01:10:36;20.3;14.3;10
74426;PMS7003;62859;53.906;27.430;2023-08-21T01:15:50;17.3;14;11.3
74426;PMS7003;62859;53.906;27.430;2023-08-21T01:21:04;15.8;14.3;10.5
74426;PMS7003;62859;53.906;27.430;2023-08-21T01:25:42;17.7;15;10
74426;PMS7003;62859;53.906;27.430;2023-08-21T01:30:28;19.3;16;12
74426;PMS7003;62859;53.906;27.430;2023-08-21T01:35:52;16.3;15;11.3
74426;PMS7003;62859;53.906;27.430;2023-08-21T01:41:04;17.3;15.8;11
74426;PMS7003;62859;53.906;27.430;2023-08-21T01:46:04;16.7;15.7;11
74426;PMS7003;62859;53.906;27.430;2023-08-21T01:51:04;17.3;16;11
74426;PMS7003;62859;53.906;27.430;2023-08-21T01:56:04;17.5;16;11.5
74426;PMS7003;62859;53.906;27.430;2023-08-21T02:00:50;17.7;16.7;11.3
74426;PMS7003;62859;53.906;27.430;2023-08-21T02:05:40;16.7;16.3;12
74426;PMS7003;62859;53.906;27.430;2023-08-21T02:10:48;18;16;11
74426;PMS7003;62859;53.906;27.430;2023-08-21T02:16:06;18.8;17.5;12
74426;PMS7003;62859;53.906;27.430;2023-08-21T02:20:58;18.7;17.7;13.3
74426;PMS7003;62859;53.906;27.430;2023-08-21T02:25:50;18.7;18;13.3
74426;PMS7003;62859;53.906;27.430;2023-08-21T02:31:08;20.7;18;13.3
74426;PMS7003;62859;53.906;27.430;2023-08-21T02:35:40;19.8;17.3;12.8
74426;PMS7003;62859;53.906;27.430;2023-08-21T02:40:28;18;16.7;11.7
74426;PMS7003;62859;53.906;27.430;2023-08-21T02:45:40;19.7;17.7;13.3
74426;PMS7003;62859;53.906;27.430;2023-08-21T02:51:04;20;17.7;12.3
74426;PMS7003;62859;53.906;27.430;2023-08-21T02:55:58;19.3;16.8;12
74426;PMS7003;62859;53.906;27.430;2023-08-21T03:00:54;19.3;16.3;12
74426;PMS7003;62859;53.906;27.430;2023-08-21T03:05:40;17;15.3;12
74426;PMS7003;62859;53.906;27.430;2023-08-21T03:10:28;16;15;10.3
74426;PMS7003;62859;53.906;27.430;2023-08-21T03:15:56;18.3;16.3;11.3
74426;PMS7003;62859;53.906;27.430;2023-08-21T03:20:43;20;17.7;11.3
74426;PMS7003;62859;53.906;27.430;2023-08-21T03:25:42;19.7;16.7;12.3
74426;PMS7003;62859;53.906;27.430;2023-08-21T03:30:48;19;15.3;11
74426;PMS7003;62859;53.906;27.430;2023-08-21T03:36:08;19.5;17;11.5
74426;PMS7003;62859;53.906;27.430;2023-08-21T03:40:32;19.3;16;12.3
74426;PMS7003;62859;53.906;27.430;2023-08-21T03:45:32;18.3;17.3;12
74426;PMS7003;62859;53.906;27.430;2023-08-21T03:51:06;17;14.8;10.8
74426;PMS7003;62859;53.906;27.430;2023-08-21T03:56:04;20.7;18.3;12
74426;PMS7003;62859;53.906;27.430;2023-08-21T04:00:28;19.3;16.7;12.3
74426;PMS7003;62859;53.906;27.430;2023-08-21T04:05:38;17.7;16.7;12.3
74426;PMS7003;62859;53.906;27.430;2023-08-21T04:10:50;20.5;17.8;12
74426;PMS7003;62859;53.906;27.430;2023-08-21T04:15:33;20.7;20;14
74426;PMS7003;62859;53.906;27.430;2023-08-21T04:20:28;20;18;12.7
74426;PMS7003;62859;53.906;27.430;2023-08-21T04:26:04;17.3;16;12
74426;PMS7003;62859;53.906;27.430;2023-08-21T04:30:52;17.5;15.3;11
74426;PMS7003;62859;53.906;27.430;2023-08-21T04:35:42;18.3;16.7;12
74426;PMS7003;62859;53.906;27.430;2023-08-21T04:40:28;20;18.7;12.7
74426;PMS7003;62859;53.906;27.430;2023-08-21T04:45:28;20.3;17.7;12.7
74426;PMS7003;62859;53.906;27.430;2023-08-21T04:50:28;17.8;16.3;12
74426;PMS7003;62859;53.906;27.430;2023-08-21T04:55:32;19.7;19;12.7
74426;PMS7003;62859;53.906;27.430;2023-08-21T05:00:52;20.7;18.3;13.7
74426;PMS7003;62859;53.906;27.430;2023-08-21T05:05:53;21;19;12.7
74426;PMS7003;62859;53.906;27.430;2023-08-21T05:10:53;20.3;19;13.3
74426;PMS7003;62859;53.906;27.430;2023-08-21T05:15:32;20;17.7;12.3
74426;PMS7003;62859;53.906;27.430;2023-08-21T05:20:34;21.3;17.7;12.7
74426;PMS7003;62859;53.906;27.430;2023-08-21T05:25:28;18.7;17;12.3
74426;PMS7003;62859;53.906;27.430;2023-08-21T05:31:06;22;18.5;13.3
74426;PMS7003;62859;53.906;27.430;2023-08-21T05:35:28;22;17.3;13.3
74426;PMS7003;62859;53.906;27.430;2023-08-21T05:40:40;19;17;12.3
74426;PMS7003;62859;53.906;27.430;2023-08-21T05:46:05;21.5;18.5;14.5
74426;PMS7003;62859;53.906;27.430;2023-08-21T05:50:52;22.7;20.3;15
74426;PMS7003;62859;53.906;27.430;2023-08-21T05:55:38;16.3;14;10.3
74426;PMS7003;62859;53.906;27.430;2023-08-21T06:00:48;23.7;19.3;13.3
74426;PMS7003;62859;53.906;27.430;2023-08-21T06:06:04;17.3;16;12
74426;PMS7003;62859;53.906;27.430;2023-08-21T06:11:04;20.7;18.3;13.7
74426;PMS7003;62859;53.906;27.430;2023-08-21T06:16:06;20.3;18.7;13.7
74426;PMS7003;62859;53.906;27.430;2023-08-21T06:21:08;21.3;18.7;14.3
74426;PMS7003;62859;53.906;27.430;2023-08-21T06:25:28;21.5;18.8;14.3
74426;PMS7003;62859;53.906;27.430;2023-08-21T06:30:32;21.3;18.7;13
74426;PMS7003;62859;53.906;27.430;2023-08-21T06:35:38;20.3;18.3;14
74426;PMS7003;62859;53.906;27.430;2023-08-21T06:41:04;19;18;13.3
74426;PMS7003;62859;53.906;27.430;2023-08-21T06:45:56;17.8;16.3;11.8
74426;PMS7003;62859;53.906;27.430;2023-08-21T06:50:50;22;18.7;13.7
74426;PMS7003;62859;53.906;27.430;2023-08-21T06:55:54;19.3;17.3;13.7
74426;PMS7003;62859;53.906;27.430;2023-08-21T07:00:38;22;18;13
74426;PMS7003;62859;53.906;27.430;2023-08-21T07:05:46;21.5;18.5;13.5
74426;PMS7003;62859;53.906;27.430;2023-08-21T07:10:35;19;17.7;13
74426;PMS7003;62859;53.906;27.430;2023-08-21T07:16:04;21;17.7;13
74426;PMS7003;62859;53.906;27.430;2023-08-21T07:20:56;16.7;15.7;11.7
74426;PMS7003;62859;53.906;27.430;2023-08-21T07:26:04;16.5;16.5;13.3
74426;PMS7003;62859;53.906;27.430;2023-08-21T07:30:28;18.3;16.3;11.7
74426;PMS7003;62859;53.906;27.430;2023-08-21T07:35:28;17;16.3;11.7
74426;PMS7003;62859;53.906;27.430;2023-08-21T07:41:03;17.8;16.3;11
74426;PMS7003;62859;53.906;27.430;2023-08-21T07:45:40;18.7;15.3;11.7
74426;PMS7003;62859;53.906;27.430;2023-08-21T07:50:49;17.3;15.7;10.7
74426;PMS7003;62859;53.906;27.430;2023-08-21T07:55:28;17.7;15.7;11.3
74426;PMS7003;62859;53.906;27.430;2023-08-21T08:05:32;23;20;14
74426;PMS7003;62859;53.906;27.430;2023-08-21T08:20:30;23;20;14
74426;PMS7003;62859;53.906;27.430;2023-08-21T08:35:50;11;11;9
74426;PMS7003;62859;53.906;27.430;2023-08-21T08:40:32;11;11;9
74426;PMS7003;62859;53.906;27.430;2023-08-21T09:05:38;15;15;11
74426;PMS7003;62859;53.906;27.430;2023-08-21T09:30:50;16;15;10
74426;PMS7003;62859;53.906;27.430;2023-08-21T09:40:50;16;15;10
74426;PMS7003;62859;53.906;27.430;2023-08-21T09:45:28;16;15;10
74426;PMS7003;62859;53.906;27.430;2023-08-21T11:00:56;15;13;9
74426;PMS7003;62859;53.906;27.430;2023-08-21T11:06:04;14.5;12.5;10
74426;PMS7003;62859;53.906;27.430;2023-08-21T14:00:40;11;7;6
74426;PMS7003;62859;53.906;27.430;2023-08-21T15:56:04;8;8;6
74426;PMS7003;62859;53.906;27.430;2023-08-21T16:16:04;8;8;6
74426;PMS7003;62859;53.906;27.430;2023-08-21T16:45:28;12;12;9
74426;PMS7003;62859;53.906;27.430;2023-08-21T16:55:32;10;10;7
74426;PMS7003;62859;53.906;27.430;2023-08-21T17:11:04;14;13;9
74426;PMS7003;62859;53.906;27.430;2023-08-21T17:20:28;12;12;8
74426;PMS7003;62859;53.906;27.430;2023-08-21T17:25:40;12;12;8
74426;PMS7003;62859;53.906;27.430;2023-08-21T18:40:38;12;12;9
74426;PMS7003;62859;53.906;27.430;2023-08-21T19:31:07;12;12;9
74426;PMS7003;62859;53.906;27.430;2023-08-21T19:36:14;12;12;9
74426;PMS7003;62859;53.906;27.430;2023-08-21T19:45:28;12;12;9
74426;PMS7003;62859;53.906;27.430;2023-08-21T19:50:28;12;12;9
74426;PMS7003;62859;53.906;27.430;2023-08-21T19:56:04;12;12;9
74426;PMS7003;62859;53.906;27.430;2023-08-21T20:10:38;7;7;6
74426;PMS7003;62859;53.906;27.430;2023-08-21T20:15:28;6;6;5
74426;PMS7003;62859;53.906;27.430;2023-08-21T20:30:28;6;6;3
74426;PMS7003;62859;53.906;27.430;2023-08-21T20:45:44;4;4;4
74426;PMS7003;62859;53.906;27.430;2023-08-21T21:05:42;4;4;4
74426;PMS7003;62859;53.906;27.430;2023-08-21T21:10:32;5;5;3.5
74426;PMS7003;62859;53.906;27.430;2023-08-21T21:16:06;2;2;2
74426;PMS7003;62859;53.906;27.430;2023-08-21T21:35:56;6;4;3
74426;PMS7003;62859;53.906;27.430;2023-08-21T21:45:38;2;1;0
74426;PMS7003;62859;53.906;27.430;2023-08-21T22:00:32;3;3;2
74426;PMS7003;62859;53.906;27.430;2023-08-21T22:10:50;3;3;2
74426;PMS7003;62859;53.906;27.430;2023-08-21T22:15:43;4;3;2
74426;PMS7003;62859;53.906;27.430;2023-08-21T22:25:46;2.5;2;1.5
74426;PMS7003;62859;53.906;27.430;2023-08-21T22:30:56;2.5;2;1.5
74426;PMS7003;62859;53.906;27.430;2023-08-21T22:50:50;2.5;2;1.5
74426;PMS7003;62859;53.906;27.430;2023-08-21T23:00:38;5;2;1
74426;PMS7003;62859;53.906;27.430;2023-08-21T23:05:28;3;2;1
74426;PMS7003;62859;53.906;27.430;2023-08-21T23:15:43;1;1;1
74426;PMS7003;62859;53.906;27.430;2023-08-21T23:25:40;1.3;1.3;0.7
74426;PMS7003;62859;53.906;27.430;2023-08-21T23:30:40;0;0;0
74426;PMS7003;62859;53.906;27.430;2023-08-21T23:35:36;0;0;0
74426;PMS7003;62859;53.906;27.430;2023-08-21T23:46:04;0;0;0
74426;PMS7003;62859;53.906;27.430;2023-08-21T23:55:52;1.3;1.3;0.7
